createdAt,value
2023-07-11T00:02:10.982Z,99.90
2023-07-11T00:04:39.461Z,99.90
2023-07-11T00:07:07.599Z,99.90
2023-07-11T00:09:35.680Z,99.90
2023-07-11T00:12:05.807Z,99.90
2023-07-11T00:14:38.131Z,99.90
2023-07-11T00:17:07.044Z,99.90
2023-07-11T00:19:49.026Z,99.90
2023-07-11T00:22:17.683Z,99.90
2023-07-11T00:24:46.192Z,99.90
2023-07-11T00:27:18.616Z,99.90
2023-07-11T00:29:47.363Z,99.90
2023-07-11T00:32:15.478Z,99.90
2023-07-11T00:34:43.882Z,99.90
2023-07-11T00:37:12.094Z,99.90
2023-07-11T00:39:40.069Z,99.90
2023-07-11T00:42:10.420Z,99.90
2023-07-11T00:44:55.056Z,99.90
2023-07-11T00:47:26.221Z,99.90
2023-07-11T00:49:59.014Z,99.90
2023-07-11T00:52:29.552Z,99.90
2023-07-11T00:55:01.355Z,99.90
2023-07-11T00:57:33.924Z,99.90
2023-07-11T01:00:05.942Z,99.90
2023-07-11T01:02:35.089Z,99.90
2023-07-11T01:05:04.689Z,99.90
2023-07-11T01:07:36.436Z,99.90
2023-07-11T01:10:05.421Z,99.90
2023-07-11T01:12:33.517Z,99.90
2023-07-11T01:15:04.539Z,99.90
2023-07-11T01:17:34.644Z,99.90
2023-07-11T01:20:06.246Z,99.90
2023-07-11T01:22:39.013Z,99.90
2023-07-11T01:25:11.156Z,99.90
2023-07-11T01:27:39.383Z,99.90
2023-07-11T01:30:10.279Z,99.90
2023-07-11T01:32:39.129Z,99.90
2023-07-11T01:35:08.277Z,99.90
2023-07-11T01:37:38.550Z,99.90
2023-07-11T01:40:07.943Z,99.90
2023-07-11T01:42:37.268Z,99.90
2023-07-11T01:45:07.451Z,99.90
2023-07-11T01:47:35.501Z,99.90
2023-07-11T01:50:03.467Z,99.90
2023-07-11T01:52:31.434Z,99.90
2023-07-11T01:55:02.137Z,99.90
2023-07-11T01:57:33.860Z,99.90
2023-07-11T02:00:01.819Z,99.90
2023-07-11T02:02:30.070Z,99.90
2023-07-11T02:04:58.327Z,99.90
2023-07-11T02:07:26.446Z,99.90
2023-07-11T02:09:54.380Z,99.90
2023-07-11T02:12:23.797Z,99.90
2023-07-11T02:14:53.094Z,99.90
2023-07-11T02:17:21.241Z,99.90
2023-07-11T02:19:50.378Z,99.90
2023-07-11T02:22:18.308Z,99.90
2023-07-11T02:24:47.828Z,99.90
2023-07-11T02:27:16.016Z,99.90
2023-07-11T02:29:45.543Z,99.90
2023-07-11T02:32:13.828Z,99.90
2023-07-11T02:34:41.727Z,99.90
2023-07-11T02:37:09.710Z,99.90
2023-07-11T02:39:38.288Z,99.90
2023-07-11T02:42:08.298Z,99.90
2023-07-11T02:44:36.514Z,99.90
2023-07-11T02:47:06.586Z,99.90
2023-07-11T02:49:34.608Z,99.90
2023-07-11T02:52:02.561Z,99.90
2023-07-11T02:54:30.669Z,99.90
2023-07-11T02:56:58.604Z,99.90
2023-07-11T02:59:26.668Z,99.90
2023-07-11T03:01:54.899Z,99.90
2023-07-11T03:04:24.589Z,99.90
2023-07-11T03:06:54.921Z,99.90
2023-07-11T03:09:23.289Z,99.90
2023-07-11T03:11:51.502Z,99.90
2023-07-11T03:14:19.738Z,99.90
2023-07-11T03:16:51.910Z,99.90
2023-07-11T03:19:21.096Z,99.90
2023-07-11T03:21:50.581Z,99.90
2023-07-11T03:24:18.940Z,99.90
2023-07-11T03:26:48.056Z,99.90
2023-07-11T03:29:16.760Z,99.90
2023-07-11T03:31:45.000Z,99.90
2023-07-11T03:34:13.075Z,99.90
2023-07-11T03:36:41.873Z,99.90
2023-07-11T03:39:11.770Z,99.90
2023-07-11T03:41:39.880Z,99.90
2023-07-11T03:44:08.080Z,99.90
2023-07-11T03:46:36.324Z,99.90
2023-07-11T03:49:04.439Z,99.90
2023-07-11T03:51:32.774Z,99.90
2023-07-11T03:54:02.128Z,99.90
2023-07-11T03:56:32.041Z,99.90
2023-07-11T03:59:00.315Z,99.90
2023-07-11T04:01:28.437Z,99.90
2023-07-11T04:03:56.494Z,99.90
2023-07-11T04:06:24.503Z,99.90
2023-07-11T04:08:52.559Z,99.90
2023-07-11T04:11:20.769Z,99.90
2023-07-11T04:13:50.256Z,99.90
2023-07-11T04:16:18.396Z,99.90
2023-07-11T04:18:46.434Z,99.90
2023-07-11T04:21:14.679Z,99.90
2023-07-11T04:23:42.711Z,99.90
2023-07-11T04:26:10.832Z,99.90
2023-07-11T04:28:38.720Z,99.90
2023-07-11T04:31:08.079Z,99.90
2023-07-11T04:33:36.018Z,99.90
2023-07-11T04:36:09.960Z,99.90
2023-07-11T04:38:38.114Z,99.90
2023-07-11T04:41:07.129Z,99.90
2023-07-11T04:43:36.158Z,99.90
2023-07-11T04:46:06.087Z,99.90
2023-07-11T04:48:37.426Z,99.90
2023-07-11T04:51:07.588Z,99.90
2023-07-11T04:53:37.087Z,99.90
2023-07-11T04:56:08.011Z,99.90
2023-07-11T04:58:37.323Z,99.90
2023-07-11T05:01:07.373Z,99.90
2023-07-11T05:03:37.918Z,99.90
2023-07-11T05:06:07.295Z,99.90
2023-07-11T05:08:35.607Z,99.90
2023-07-11T05:11:05.833Z,99.90
2023-07-11T05:13:35.481Z,99.90
2023-07-11T05:16:05.071Z,99.90
2023-07-11T05:18:35.168Z,99.90
2023-07-11T05:21:04.509Z,97.90
2023-07-11T05:23:33.016Z,96.20
2023-07-11T05:26:01.297Z,95.20
2023-07-11T05:28:30.974Z,93.40
2023-07-11T05:31:01.742Z,92.50
2023-07-11T05:33:30.550Z,91.80
2023-07-11T05:36:07.214Z,91.30
2023-07-11T05:38:37.163Z,90.30
2023-07-11T05:41:05.387Z,89.00
2023-07-11T05:43:33.305Z,88.00
2023-07-11T05:46:01.423Z,82.90
2023-07-11T05:48:29.666Z,80.10
2023-07-11T05:51:01.440Z,78.20
2023-07-11T05:53:30.176Z,79.50
2023-07-11T05:56:00.045Z,76.60
2023-07-11T05:58:29.220Z,75.70
2023-07-11T06:00:58.410Z,77.30
2023-07-11T06:03:28.964Z,75.20
2023-07-11T06:06:01.984Z,75.00
2023-07-11T06:08:30.198Z,73.70
2023-07-11T06:11:01.234Z,71.70
2023-07-11T06:13:30.793Z,72.20
2023-07-11T06:16:01.692Z,71.50
2023-07-11T06:18:29.934Z,67.70
2023-07-11T06:20:57.891Z,65.80
2023-07-11T06:23:25.924Z,65.20
2023-07-11T06:25:54.071Z,62.30
2023-07-11T06:28:23.570Z,62.10
2023-07-11T06:30:51.814Z,60.60
2023-07-11T06:33:20.368Z,60.40
2023-07-11T06:35:51.183Z,58.00
2023-07-11T06:38:20.003Z,57.00
2023-07-11T06:40:52.249Z,59.20
2023-07-11T06:43:21.780Z,56.60
2023-07-11T06:45:54.628Z,58.10
2023-07-11T06:48:24.243Z,57.60
2023-07-11T06:50:53.858Z,56.10
2023-07-11T06:53:23.333Z,57.40
2023-07-11T06:55:53.359Z,54.50
2023-07-11T06:58:22.087Z,53.80
2023-07-11T07:00:56.308Z,53.00
2023-07-11T07:03:25.829Z,53.90
2023-07-11T07:05:57.333Z,54.90
2023-07-11T07:08:26.661Z,54.70
2023-07-11T07:10:55.177Z,53.20
2023-07-11T07:13:25.227Z,53.20
2023-07-11T07:15:57.475Z,51.70
2023-07-11T07:18:26.625Z,52.60
2023-07-11T07:21:10.932Z,52.80
2023-07-11T07:23:39.198Z,50.80
2023-07-11T07:26:07.581Z,53.20
2023-07-11T07:28:36.421Z,53.00
2023-07-11T07:31:07.567Z,51.80
2023-07-11T07:33:36.657Z,51.40
2023-07-11T07:36:07.081Z,50.80
2023-07-11T07:38:35.922Z,51.80
2023-07-11T07:41:05.954Z,50.10
2023-07-11T07:43:35.201Z,51.50
2023-07-11T07:46:05.781Z,50.30
2023-07-11T07:48:34.610Z,49.80
2023-07-11T07:51:05.224Z,50.20
2023-07-11T07:53:33.797Z,49.20
2023-07-11T07:56:06.776Z,49.60
2023-07-11T08:01:08.192Z,51.70
2023-07-11T08:03:37.327Z,52.10
2023-07-11T08:08:37.119Z,52.30
2023-07-11T08:11:06.517Z,50.70
2023-07-11T08:13:44.987Z,50.70
2023-07-11T08:18:57.176Z,51.60
2023-07-11T08:21:25.493Z,50.20
2023-07-11T08:23:53.570Z,51.00
2023-07-11T08:26:22.365Z,51.50
2023-07-11T08:28:51.469Z,49.20
2023-07-11T08:31:19.662Z,50.10
2023-07-11T08:33:49.282Z,48.00
2023-07-11T08:36:17.275Z,49.50
2023-07-11T08:38:47.497Z,50.20
2023-07-11T08:41:25.773Z,49.40
2023-07-11T08:43:59.766Z,50.00
2023-07-11T08:46:29.876Z,50.90
2023-07-11T08:49:01.957Z,49.70
2023-07-11T08:51:34.088Z,49.50
2023-07-11T08:54:07.501Z,50.50
2023-07-11T08:56:42.539Z,50.90
2023-07-11T08:59:16.604Z,51.00
2023-07-11T09:01:51.660Z,50.50
2023-07-11T09:04:24.778Z,49.40
2023-07-11T09:06:57.093Z,49.60
2023-07-11T09:09:25.816Z,50.20
2023-07-11T09:12:07.447Z,49.50
2023-07-11T09:14:46.247Z,47.60
2023-07-11T09:17:25.184Z,49.60
2023-07-11T09:20:07.436Z,47.10
2023-07-11T09:22:45.280Z,47.00
2023-07-11T09:25:18.883Z,46.30
2023-07-11T09:27:50.602Z,48.40
2023-07-11T09:30:24.971Z,49.20
2023-07-11T09:32:53.644Z,51.40
2023-07-11T09:35:28.957Z,50.90
2023-07-11T09:38:03.354Z,51.80
2023-07-11T09:40:41.406Z,52.70
2023-07-11T09:43:11.680Z,51.90
2023-07-11T09:45:43.345Z,50.30
2023-07-11T09:48:16.759Z,51.00
2023-07-11T09:53:34.048Z,51.50
2023-07-11T09:56:12.295Z,52.10
2023-07-11T09:58:42.141Z,52.50
2023-07-11T10:01:19.451Z,50.90
2023-07-11T10:03:49.024Z,49.90
2023-07-11T10:09:18.524Z,50.00
2023-07-11T10:11:54.138Z,48.40
2023-07-11T10:14:27.358Z,47.80
2023-07-11T10:16:57.767Z,48.20
2023-07-11T10:19:27.087Z,49.10
2023-07-11T10:22:00.368Z,50.90
2023-07-11T10:24:36.304Z,49.60
2023-07-11T10:27:13.052Z,50.80
2023-07-11T10:29:46.040Z,51.90
2023-07-11T10:32:18.885Z,52.10
2023-07-11T10:34:52.053Z,51.50
2023-07-11T10:37:28.828Z,49.70
2023-07-11T10:40:04.802Z,51.80
2023-07-11T10:42:40.954Z,52.90
2023-07-11T10:45:14.033Z,52.10
2023-07-11T10:47:49.775Z,52.20
2023-07-11T10:50:32.625Z,54.60
2023-07-11T10:53:21.260Z,55.90
2023-07-11T10:55:55.783Z,55.90
2023-07-11T10:58:26.107Z,56.90
2023-07-11T11:01:07.368Z,58.20
2023-07-11T11:03:40.209Z,57.40
2023-07-11T11:06:31.237Z,59.00
2023-07-11T11:09:09.237Z,58.80
2023-07-11T11:11:48.776Z,58.50
2023-07-11T11:14:20.864Z,59.10
2023-07-11T11:17:04.147Z,57.60
2023-07-11T11:19:45.887Z,57.00
2023-07-11T11:22:20.059Z,58.40
2023-07-11T11:24:54.406Z,56.60
2023-07-11T11:27:43.616Z,59.20
2023-07-11T11:30:31.181Z,59.80
2023-07-11T11:33:11.186Z,59.70
2023-07-11T11:35:47.554Z,59.50
2023-07-11T11:38:29.943Z,58.20
2023-07-11T11:41:03.448Z,57.80
2023-07-11T11:45:29.225Z,58.00
2023-07-11T11:51:27.634Z,57.60
2023-07-11T11:54:06.548Z,57.40
2023-07-11T11:56:45.397Z,58.20
2023-07-11T11:59:19.297Z,59.30
2023-07-11T12:02:02.721Z,58.20
2023-07-11T12:05:07.420Z,59.00
2023-07-11T12:07:42.544Z,60.00
2023-07-11T12:10:21.057Z,60.10
2023-07-11T12:13:17.520Z,59.70
2023-07-11T12:15:54.566Z,59.30
2023-07-11T12:18:49.584Z,59.40
2023-07-11T12:21:42.837Z,61.00
2023-07-11T12:24:44.126Z,61.40
2023-07-11T12:27:44.447Z,58.70
2023-07-11T12:30:40.267Z,58.60
2023-07-11T12:33:38.175Z,58.00
2023-07-11T12:36:53.830Z,58.00
2023-07-11T12:39:46.977Z,57.10
2023-07-11T12:42:42.219Z,58.30
2023-07-11T12:45:17.971Z,56.70
2023-07-11T12:47:49.965Z,56.50
2023-07-11T12:50:23.155Z,56.30
2023-07-11T12:53:00.171Z,55.40
2023-07-11T12:55:29.731Z,56.00
2023-07-11T12:57:58.415Z,55.10
2023-07-11T13:00:30.573Z,56.30
2023-07-11T13:03:23.739Z,56.70
2023-07-11T13:06:06.888Z,55.80
2023-07-11T13:08:43.168Z,55.40
2023-07-11T13:11:21.675Z,56.80
2023-07-11T13:13:51.195Z,56.40
2023-07-11T13:16:23.899Z,55.10
2023-07-11T13:18:54.389Z,56.60
2023-07-11T13:21:22.827Z,58.70
2023-07-11T13:23:51.680Z,57.00
2023-07-11T13:26:22.997Z,57.40
2023-07-11T13:29:04.811Z,56.50
2023-07-11T13:31:34.523Z,57.10
2023-07-11T13:34:11.589Z,59.00
2023-07-11T13:36:42.862Z,56.80
2023-07-11T13:39:16.629Z,58.40
2023-07-11T13:41:49.072Z,57.80
2023-07-11T13:44:26.074Z,58.00
2023-07-11T13:46:55.329Z,56.30
2023-07-11T13:49:26.720Z,55.90
2023-07-11T13:51:59.457Z,55.50
2023-07-11T13:54:34.141Z,54.90
2023-07-11T13:57:03.650Z,56.70
2023-07-11T14:02:03.656Z,55.60
2023-07-11T14:04:35.065Z,55.60
2023-07-11T14:07:03.580Z,55.30
2023-07-11T14:09:31.633Z,54.10
2023-07-11T14:11:59.633Z,53.40
2023-07-11T14:14:40.132Z,53.50
2023-07-11T14:17:16.144Z,55.10
2023-07-11T14:19:46.035Z,55.00
2023-07-11T14:22:16.497Z,54.30
2023-07-11T14:24:47.352Z,55.00
2023-07-11T14:27:18.193Z,54.80
2023-07-11T14:29:46.227Z,53.10
2023-07-11T14:32:22.667Z,52.90
2023-07-11T14:34:51.962Z,52.80
2023-07-11T14:37:23.642Z,52.70
2023-07-11T14:39:52.239Z,53.50
2023-07-11T14:42:23.092Z,53.80
2023-07-11T14:44:51.112Z,53.90
2023-07-11T14:47:19.664Z,53.90
2023-07-11T14:49:49.053Z,52.50
2023-07-11T14:52:32.680Z,53.00
2023-07-11T15:00:04.744Z,51.70
2023-07-11T15:02:34.673Z,52.00
2023-07-11T15:10:10.810Z,53.00
2023-07-11T15:17:50.423Z,53.90
2023-07-11T15:20:21.288Z,52.20
2023-07-11T15:22:55.542Z,52.60
2023-07-11T15:25:30.055Z,53.20
2023-07-11T15:27:58.812Z,53.50
2023-07-11T15:30:27.336Z,53.70
2023-07-11T15:32:55.513Z,53.00
2023-07-11T15:35:26.277Z,53.80
2023-07-11T15:37:55.691Z,54.20
2023-07-11T15:40:25.617Z,54.10
2023-07-11T15:42:55.271Z,54.80
2023-07-11T15:45:25.988Z,54.40
2023-07-11T15:47:55.016Z,55.90
2023-07-11T15:50:24.765Z,55.10
2023-07-11T15:52:53.108Z,54.90
2023-07-11T15:55:25.940Z,53.60
2023-07-11T15:57:56.939Z,55.30
2023-07-11T16:00:27.305Z,55.20
2023-07-11T16:02:55.845Z,55.00
2023-07-11T16:05:26.373Z,55.00
2023-07-11T16:07:54.529Z,56.30
2023-07-11T16:10:27.256Z,57.10
2023-07-11T16:12:55.353Z,56.10
2023-07-11T16:15:27.112Z,56.60
2023-07-11T16:17:55.431Z,57.10
2023-07-11T16:20:26.252Z,55.70
2023-07-11T16:22:54.620Z,55.60
2023-07-11T16:25:25.438Z,55.80
2023-07-11T16:27:55.525Z,56.50
2023-07-11T16:30:26.950Z,55.30
2023-07-11T16:32:56.037Z,56.10
2023-07-11T16:35:28.134Z,56.20
2023-07-11T16:38:03.287Z,56.80
2023-07-11T16:40:33.296Z,57.20
2023-07-11T16:43:01.364Z,57.50
2023-07-11T16:45:32.531Z,58.00
2023-07-11T16:48:00.717Z,58.10
2023-07-11T16:50:30.367Z,58.20
2023-07-11T16:53:01.248Z,58.40
2023-07-11T16:55:30.458Z,57.90
2023-07-11T16:57:59.941Z,57.30
2023-07-11T17:00:29.014Z,58.20
2023-07-11T17:02:57.029Z,58.20
2023-07-11T17:05:28.188Z,58.00
2023-07-11T17:07:56.652Z,58.80
2023-07-11T17:10:24.612Z,58.40
2023-07-11T17:12:52.512Z,58.80
2023-07-11T17:15:21.878Z,59.20
2023-07-11T17:17:50.037Z,59.50
2023-07-11T17:20:21.995Z,62.70
2023-07-11T17:22:50.591Z,60.40
2023-07-11T17:25:21.037Z,62.60
2023-07-11T17:27:52.921Z,64.30
2023-07-11T17:30:23.163Z,66.00
2023-07-11T17:32:51.219Z,65.50
2023-07-11T17:35:19.339Z,62.90
2023-07-11T17:37:49.344Z,62.80
2023-07-11T17:40:23.031Z,61.70
2023-07-11T17:42:51.864Z,62.30
2023-07-11T17:45:36.438Z,62.50
2023-07-11T17:48:18.912Z,62.30
2023-07-11T17:50:53.842Z,62.10
2023-07-11T17:53:22.530Z,63.10
2023-07-11T17:55:51.072Z,63.50
2023-07-11T17:58:25.289Z,66.80
2023-07-11T18:00:55.657Z,67.40
2023-07-11T18:03:26.213Z,67.80
2023-07-11T18:05:56.969Z,68.30
2023-07-11T18:08:26.979Z,72.20
2023-07-11T18:10:55.047Z,72.50
2023-07-11T18:13:22.970Z,72.40
2023-07-11T18:15:51.582Z,73.60
2023-07-11T18:18:27.669Z,73.80
2023-07-11T18:20:58.794Z,75.30
2023-07-11T18:23:29.105Z,76.60
2023-07-11T18:25:59.358Z,78.70
2023-07-11T18:28:28.534Z,79.10
2023-07-11T18:30:56.839Z,78.30
2023-07-11T18:33:26.204Z,79.80
2023-07-11T18:35:54.200Z,80.90
2023-07-11T18:38:24.333Z,82.20
2023-07-11T18:40:53.424Z,83.60
2023-07-11T18:43:21.426Z,84.20
2023-07-11T18:45:50.704Z,84.50
2023-07-11T18:48:18.935Z,85.50
2023-07-11T18:50:48.481Z,86.10
2023-07-11T18:53:16.439Z,87.40
2023-07-11T18:55:47.332Z,88.80
2023-07-11T18:58:18.629Z,90.00
2023-07-11T19:00:49.882Z,90.80
2023-07-11T19:03:19.638Z,91.20
2023-07-11T19:05:49.414Z,91.40
2023-07-11T19:08:18.904Z,92.50
2023-07-11T19:10:47.862Z,93.80
2023-07-11T19:13:16.315Z,94.50
2023-07-11T19:15:44.709Z,95.60
2023-07-11T19:18:18.032Z,97.00
2023-07-11T19:20:46.320Z,98.40
2023-07-11T19:23:17.582Z,99.90
2023-07-11T19:25:47.523Z,99.90
2023-07-11T19:28:25.406Z,99.90
2023-07-11T19:30:56.290Z,99.90
2023-07-11T19:33:25.677Z,99.90
2023-07-11T19:35:56.188Z,99.90
2023-07-11T19:38:27.520Z,99.90
2023-07-11T19:40:57.222Z,99.90
2023-07-11T19:43:25.818Z,99.90
2023-07-11T19:45:56.752Z,99.90
2023-07-11T19:48:26.516Z,99.90
2023-07-11T19:50:56.022Z,99.90
2023-07-11T19:53:32.293Z,99.90
2023-07-11T19:56:02.859Z,99.90
2023-07-11T19:58:32.035Z,99.90
2023-07-11T20:01:02.077Z,99.90
2023-07-11T20:03:32.050Z,99.90
2023-07-11T20:06:01.622Z,99.90
2023-07-11T20:08:32.435Z,99.90
2023-07-11T20:11:02.022Z,99.90
2023-07-11T20:13:31.515Z,99.90
2023-07-11T20:16:02.475Z,99.90
2023-07-11T20:18:32.316Z,99.90
2023-07-11T20:21:02.182Z,99.90
2023-07-11T20:23:31.887Z,99.90
2023-07-11T20:26:02.141Z,99.90
2023-07-11T20:28:33.367Z,99.90
2023-07-11T20:31:02.125Z,99.90
2023-07-11T20:33:30.477Z,99.90
2023-07-11T20:35:58.805Z,99.90
2023-07-11T20:38:26.704Z,99.90
2023-07-11T20:40:56.002Z,99.90
2023-07-11T20:43:24.054Z,99.90
2023-07-11T20:45:52.186Z,99.90
2023-07-11T20:48:22.516Z,99.90
2023-07-11T20:50:51.722Z,99.90
2023-07-11T20:53:22.116Z,99.90
2023-07-11T20:55:53.376Z,99.90
2023-07-11T20:58:22.721Z,99.90
2023-07-11T21:00:52.232Z,99.90
2023-07-11T21:03:21.755Z,99.90
2023-07-11T21:05:50.591Z,99.90
2023-07-11T21:08:27.684Z,99.90
2023-07-11T21:10:56.676Z,99.90
2023-07-11T21:13:26.562Z,99.90
2023-07-11T21:15:55.807Z,99.90
2023-07-11T21:18:26.094Z,99.90
2023-07-11T21:20:56.295Z,99.90
2023-07-11T21:23:25.112Z,99.90
2023-07-11T21:25:54.351Z,99.90
2023-07-11T21:28:30.383Z,99.90
2023-07-11T21:31:00.366Z,99.90
2023-07-11T21:33:29.348Z,99.90
2023-07-11T21:36:01.064Z,99.90
2023-07-11T21:38:30.621Z,99.90
2023-07-11T21:41:00.363Z,99.90
2023-07-11T21:43:29.658Z,99.90
2023-07-11T21:45:59.140Z,99.90
2023-07-11T21:48:29.150Z,99.90
2023-07-11T21:50:59.189Z,99.90
2023-07-11T21:53:28.958Z,99.90
2023-07-11T21:56:00.728Z,99.90
2023-07-11T21:58:30.236Z,99.90
2023-07-11T22:00:58.289Z,99.90
2023-07-11T22:03:28.706Z,99.90
2023-07-11T22:05:59.264Z,99.90
2023-07-11T22:08:30.090Z,99.90
2023-07-11T22:10:59.425Z,99.90
2023-07-11T22:13:30.988Z,99.90
2023-07-11T22:15:59.533Z,99.90
2023-07-11T22:18:29.700Z,99.90
2023-07-11T22:20:58.016Z,99.90
2023-07-11T22:23:26.329Z,99.90
2023-07-11T22:25:54.281Z,99.90
2023-07-11T22:28:24.317Z,99.90
2023-07-11T22:30:54.836Z,99.90
2023-07-11T22:33:22.867Z,99.90
2023-07-11T22:35:51.281Z,99.90
2023-07-11T22:38:19.259Z,99.90
2023-07-11T22:40:48.938Z,99.90
2023-07-11T22:43:18.635Z,99.90
2023-07-11T22:45:48.935Z,99.90
2023-07-11T22:48:20.854Z,99.90
2023-07-11T22:50:50.704Z,99.90
2023-07-11T22:53:22.042Z,99.90
2023-07-11T22:55:51.811Z,99.90
2023-07-11T22:58:26.962Z,99.90
2023-07-11T23:00:56.070Z,99.90
2023-07-11T23:03:26.780Z,99.90
2023-07-11T23:05:58.578Z,99.90
2023-07-11T23:08:30.182Z,99.90
2023-07-11T23:10:59.205Z,99.90
2023-07-11T23:13:27.605Z,99.90
2023-07-11T23:15:57.860Z,99.90
2023-07-11T23:18:29.024Z,99.90
2023-07-11T23:20:59.631Z,99.90
2023-07-11T23:23:29.272Z,99.90
2023-07-11T23:25:58.810Z,99.90
2023-07-11T23:28:28.764Z,99.50
2023-07-11T23:30:58.856Z,99.30
2023-07-11T23:33:28.474Z,99.20
2023-07-11T23:35:58.476Z,99.20
2023-07-11T23:38:27.972Z,99.10
2023-07-11T23:40:57.563Z,99.20
2023-07-11T23:43:36.126Z,99.10
2023-07-11T23:46:04.893Z,99.00
2023-07-11T23:48:34.208Z,99.20
2023-07-11T23:51:03.448Z,99.00
2023-07-11T23:53:32.074Z,98.70
2023-07-11T23:56:01.299Z,98.60
2023-07-11T23:58:30.985Z,98.30
